CEB069 RPVM-RPVA
Flight info
| Callsign | CEB069 |
|---|---|
| Flight time | 0h 22m |
| Altitude | 130 |
| Route | RPVM/04L N0328F130 POXO1Q POXOS POXO2R RPVA/36 |
| Aircraft | A320/M-V/N |
Departure
| Time | 2026-04-25 16:08 |
|---|---|
| Airport | Mactan Cebu International Airport (RPVM) |
Arrival
| Time | 2026-04-25 16:30 |
|---|---|
| Airport | Daniel Z. Romualdez Airport (RPVA) |
| Time | Latitude | Longitude | Altitude | Speed | Heading |
|---|---|---|---|---|---|
| 2026-04-25 15:43 | 10.31211 | 123.97825 | 36 ft | 0 kts | 224° |
| 2026-04-25 15:48 | 10.31212 | 123.97825 | 36 ft | 0 kts | 224° |
| 2026-04-25 15:48 | 10.31211 | 123.97825 | 36 ft | 0 kts | 224° |
| 2026-04-25 15:53 | 10.31216 | 123.97829 | 39 ft | 4 kts | 224° |
| 2026-04-25 15:53 | 10.31235 | 123.97849 | 35 ft | 4 kts | 227° |
| 2026-04-25 15:54 | 10.31252 | 123.97869 | 37 ft | 4 kts | 229° |
| 2026-04-25 15:54 | 10.31270 | 123.97890 | 36 ft | 4 kts | 229° |
| 2026-04-25 15:54 | 10.31289 | 123.97909 | 39 ft | 4 kts | 210° |
| 2026-04-25 15:54 | 10.31306 | 123.97914 | 39 ft | 3 kts | 134° |
| 2026-04-25 15:55 | 10.31318 | 123.97901 | 37 ft | 4 kts | 133° |
| 2026-04-25 15:55 | 10.31324 | 123.97894 | 37 ft | 0 kts | 135° |
| 2026-04-25 15:57 | 10.31316 | 123.97903 | 39 ft | 2 kts | 134° |
| 2026-04-25 15:57 | 10.31300 | 123.97920 | 38 ft | 3 kts | 134° |
| 2026-04-25 15:58 | 10.31287 | 123.97933 | 39 ft | 2 kts | 134° |
| 2026-04-25 15:58 | 10.31278 | 123.97942 | 39 ft | 3 kts | 135° |
| 2026-04-25 15:58 | 10.31258 | 123.97963 | 39 ft | 4 kts | 135° |
| 2026-04-25 15:58 | 10.31231 | 123.97986 | 39 ft | 5 kts | 153° |
| 2026-04-25 15:59 | 10.31205 | 123.97980 | 39 ft | 4 kts | 205° |
| 2026-04-25 15:59 | 10.31175 | 123.97957 | 37 ft | 5 kts | 221° |
| 2026-04-25 15:59 | 10.31150 | 123.97934 | 39 ft | 5 kts | 223° |
| 2026-04-25 15:59 | 10.31129 | 123.97913 | 38 ft | 5 kts | 225° |
| 2026-04-25 16:00 | 10.31098 | 123.97880 | 38 ft | 6 kts | 226° |
| 2026-04-25 16:00 | 10.31087 | 123.97870 | 38 ft | 6 kts | 225° |
| 2026-04-25 16:00 | 10.31042 | 123.97824 | 38 ft | 5 kts | 225° |
| 2026-04-25 16:00 | 10.31021 | 123.97804 | 36 ft | 5 kts | 225° |
| 2026-04-25 16:01 | 10.30991 | 123.97774 | 37 ft | 6 kts | 224° |
| 2026-04-25 16:01 | 10.30964 | 123.97747 | 38 ft | 7 kts | 224° |
| 2026-04-25 16:01 | 10.30930 | 123.97713 | 38 ft | 6 kts | 224° |
| 2026-04-25 16:01 | 10.30902 | 123.97685 | 38 ft | 6 kts | 224° |
| 2026-04-25 16:02 | 10.30864 | 123.97648 | 38 ft | 7 kts | 224° |
| 2026-04-25 16:02 | 10.30832 | 123.97616 | 38 ft | 6 kts | 225° |
| 2026-04-25 16:02 | 10.30806 | 123.97588 | 38 ft | 5 kts | 225° |
| 2026-04-25 16:02 | 10.30774 | 123.97558 | 37 ft | 9 kts | 224° |
| 2026-04-25 16:03 | 10.30735 | 123.97519 | 39 ft | 7 kts | 225° |
| 2026-04-25 16:03 | 10.30704 | 123.97488 | 37 ft | 6 kts | 224° |
| 2026-04-25 16:03 | 10.30670 | 123.97454 | 39 ft | 6 kts | 224° |
| 2026-04-25 16:03 | 10.30638 | 123.97422 | 39 ft | 6 kts | 224° |
| 2026-04-25 16:04 | 10.30609 | 123.97393 | 39 ft | 7 kts | 224° |
| 2026-04-25 16:04 | 10.30568 | 123.97352 | 39 ft | 8 kts | 224° |
| 2026-04-25 16:04 | 10.30541 | 123.97326 | 39 ft | 7 kts | 224° |
| 2026-04-25 16:04 | 10.30499 | 123.97282 | 39 ft | 6 kts | 225° |
| 2026-04-25 16:05 | 10.30470 | 123.97253 | 39 ft | 6 kts | 225° |
| 2026-04-25 16:05 | 10.30440 | 123.97222 | 39 ft | 6 kts | 225° |
| 2026-04-25 16:05 | 10.30391 | 123.97174 | 39 ft | 8 kts | 220° |
| 2026-04-25 16:06 | 10.30345 | 123.97164 | 36 ft | 7 kts | 160° |
| 2026-04-25 16:06 | 10.30313 | 123.97195 | 38 ft | 6 kts | 124° |
| 2026-04-25 16:06 | 10.30314 | 123.97233 | 38 ft | 5 kts | 70° |
| 2026-04-25 16:06 | 10.30332 | 123.97255 | 38 ft | 0 kts | 45° |
| 2026-04-25 16:07 | 10.30333 | 123.97256 | 38 ft | 1 kts | 45° |
| 2026-04-25 16:07 | 10.30427 | 123.97349 | 37 ft | 50 kts | 45° |
| 2026-04-25 16:07 | 10.30842 | 123.97764 | 36 ft | 114 kts | 44° |
| 2026-04-25 16:08 | 10.31530 | 123.98450 | 42 ft | 161 kts | 44° |
| 2026-04-25 16:08 | 10.32330 | 123.99302 | 598 ft | 167 kts | 48° |
| 2026-04-25 16:08 | 10.33125 | 124.00188 | 1266 ft | 172 kts | 47° |
| 2026-04-25 16:08 | 10.34004 | 124.01050 | 1908 ft | 178 kts | 43° |
| 2026-04-25 16:09 | 10.34936 | 124.01967 | 2356 ft | 197 kts | 49° |
| 2026-04-25 16:09 | 10.35885 | 124.03091 | 2750 ft | 221 kts | 51° |
| 2026-04-25 16:09 | 10.36920 | 124.04359 | 3168 ft | 245 kts | 52° |
| 2026-04-25 16:09 | 10.38029 | 124.05703 | 3852 ft | 255 kts | 51° |
| 2026-04-25 16:10 | 10.38815 | 124.06643 | 4414 ft | 260 kts | 51° |
| 2026-04-25 16:10 | 10.40399 | 124.08512 | 5503 ft | 265 kts | 50° |
| 2026-04-25 16:10 | 10.41616 | 124.09932 | 6350 ft | 268 kts | 50° |
| 2026-04-25 16:10 | 10.42856 | 124.11369 | 7138 ft | 271 kts | 50° |
| 2026-04-25 16:11 | 10.44113 | 124.12818 | 7932 ft | 275 kts | 50° |
| 2026-04-25 16:11 | 10.45391 | 124.14284 | 8721 ft | 278 kts | 50° |
| 2026-04-25 16:11 | 10.46678 | 124.15760 | 9501 ft | 281 kts | 50° |
| 2026-04-25 16:11 | 10.47984 | 124.17261 | 10231 ft | 285 kts | 50° |
| 2026-04-25 16:12 | 10.49329 | 124.18810 | 10471 ft | 307 kts | 50° |
| 2026-04-25 16:12 | 10.50785 | 124.20489 | 10770 ft | 325 kts | 50° |
| 2026-04-25 16:12 | 10.52297 | 124.22230 | 11346 ft | 331 kts | 50° |
| 2026-04-25 16:12 | 10.53338 | 124.23427 | 11766 ft | 335 kts | 49° |
| 2026-04-25 16:13 | 10.55407 | 124.25805 | 12576 ft | 342 kts | 49° |
| 2026-04-25 16:13 | 10.56997 | 124.27633 | 12915 ft | 348 kts | 49° |
| 2026-04-25 16:13 | 10.58601 | 124.29479 | 12977 ft | 348 kts | 49° |
| 2026-04-25 16:13 | 10.60213 | 124.31329 | 12983 ft | 348 kts | 49° |
| 2026-04-25 16:14 | 10.61815 | 124.33141 | 12974 ft | 348 kts | 49° |
| 2026-04-25 16:14 | 10.63414 | 124.34941 | 12957 ft | 335 kts | 48° |
| 2026-04-25 16:14 | 10.64968 | 124.36683 | 12699 ft | 328 kts | 48° |
| 2026-04-25 16:14 | 10.66491 | 124.38394 | 12401 ft | 324 kts | 49° |
| 2026-04-25 16:15 | 10.67990 | 124.40082 | 12110 ft | 319 kts | 49° |
| 2026-04-25 16:15 | 10.69468 | 124.41749 | 11819 ft | 315 kts | 49° |
| 2026-04-25 16:15 | 10.70908 | 124.43373 | 11531 ft | 311 kts | 49° |
| 2026-04-25 16:15 | 10.72346 | 124.44991 | 11239 ft | 307 kts | 49° |
| 2026-04-25 16:16 | 10.73767 | 124.46591 | 10971 ft | 302 kts | 49° |
| 2026-04-25 16:16 | 10.75175 | 124.48175 | 10697 ft | 298 kts | 49° |
| 2026-04-25 16:16 | 10.76563 | 124.49739 | 10408 ft | 296 kts | 49° |
| 2026-04-25 16:16 | 10.77922 | 124.51274 | 10137 ft | 294 kts | 49° |
| 2026-04-25 16:17 | 10.79279 | 124.52815 | 9869 ft | 290 kts | 49° |
| 2026-04-25 16:17 | 10.80618 | 124.54337 | 9565 ft | 287 kts | 49° |
| 2026-04-25 16:17 | 10.81948 | 124.55845 | 9250 ft | 284 kts | 49° |
| 2026-04-25 16:17 | 10.83263 | 124.57332 | 8973 ft | 282 kts | 49° |
| 2026-04-25 16:18 | 10.84575 | 124.58814 | 8679 ft | 280 kts | 49° |
| 2026-04-25 16:18 | 10.85013 | 124.59310 | 8574 ft | 279 kts | 49° |
| 2026-04-25 16:18 | 10.86870 | 124.61947 | 8093 ft | 274 kts | 66° |
| 2026-04-25 16:18 | 10.87492 | 124.63770 | 7797 ft | 274 kts | 78° |
| 2026-04-25 16:19 | 10.87786 | 124.65663 | 7513 ft | 273 kts | 82° |
| 2026-04-25 16:19 | 10.88052 | 124.67572 | 7223 ft | 272 kts | 82° |
| 2026-04-25 16:19 | 10.88322 | 124.69472 | 6951 ft | 270 kts | 82° |
| 2026-04-25 16:20 | 10.88863 | 124.73241 | 6393 ft | 268 kts | 81° |
| 2026-04-25 16:20 | 10.89133 | 124.75115 | 6099 ft | 264 kts | 81° |
| 2026-04-25 16:20 | 10.89657 | 124.78770 | 5516 ft | 262 kts | 81° |
| 2026-04-25 16:21 | 10.89917 | 124.80566 | 5227 ft | 261 kts | 81° |
| 2026-04-25 16:21 | 10.90183 | 124.82422 | 4944 ft | 258 kts | 81° |
| 2026-04-25 16:21 | 10.90442 | 124.84224 | 4655 ft | 256 kts | 81° |
| 2026-04-25 16:21 | 10.90696 | 124.85998 | 4357 ft | 250 kts | 81° |
| 2026-04-25 16:22 | 10.90945 | 124.87731 | 4090 ft | 246 kts | 81° |
| 2026-04-25 16:22 | 10.91184 | 124.89402 | 4012 ft | 226 kts | 81° |
| 2026-04-25 16:22 | 10.91402 | 124.90938 | 4020 ft | 214 kts | 81° |
| 2026-04-25 16:22 | 10.91610 | 124.92395 | 4016 ft | 202 kts | 81° |
| 2026-04-25 16:23 | 10.91807 | 124.93762 | 4019 ft | 194 kts | 81° |
| 2026-04-25 16:23 | 10.92001 | 124.95113 | 4019 ft | 192 kts | 81° |
| 2026-04-25 16:23 | 10.92193 | 124.96455 | 4020 ft | 191 kts | 81° |
| 2026-04-25 16:23 | 10.92390 | 124.97793 | 4018 ft | 192 kts | 78° |
| 2026-04-25 16:24 | 10.92869 | 124.99061 | 4023 ft | 194 kts | 59° |
| 2026-04-25 16:24 | 10.93754 | 125.00100 | 4022 ft | 195 kts | 40° |
| 2026-04-25 16:24 | 10.94942 | 125.00781 | 3907 ft | 198 kts | 21° |
| 2026-04-25 16:24 | 10.96288 | 125.01020 | 3752 ft | 201 kts | 6° |
| 2026-04-25 16:25 | 10.97688 | 125.01105 | 3517 ft | 201 kts | 7° |
| 2026-04-25 16:25 | 10.98629 | 125.01166 | 3399 ft | 201 kts | 7° |
| 2026-04-25 16:25 | 11.00471 | 125.01286 | 3182 ft | 199 kts | 7° |
| 2026-04-25 16:25 | 11.01859 | 125.01378 | 2984 ft | 200 kts | 7° |
| 2026-04-25 16:26 | 11.03239 | 125.01470 | 2776 ft | 199 kts | 7° |
| 2026-04-25 16:26 | 11.04625 | 125.01564 | 2522 ft | 200 kts | 7° |
| 2026-04-25 16:26 | 11.05992 | 125.01655 | 2197 ft | 193 kts | 8° |
| 2026-04-25 16:26 | 11.07312 | 125.01742 | 1878 ft | 187 kts | 8° |
| 2026-04-25 16:27 | 11.08568 | 125.01826 | 1714 ft | 176 kts | 7° |
| 2026-04-25 16:27 | 11.09737 | 125.01903 | 1719 ft | 163 kts | 7° |
| 2026-04-25 16:27 | 11.10845 | 125.01976 | 1742 ft | 158 kts | 7° |
| 2026-04-25 16:27 | 11.11944 | 125.02052 | 1727 ft | 157 kts | 8° |
| 2026-04-25 16:28 | 11.12131 | 125.02065 | 1714 ft | 156 kts | 8° |
| 2026-04-25 16:28 | 11.12941 | 125.02117 | 1735 ft | 154 kts | 8° |
| 2026-04-25 16:28 | 11.13989 | 125.02187 | 1635 ft | 149 kts | 8° |
| 2026-04-25 16:28 | 11.15008 | 125.02255 | 1395 ft | 145 kts | 8° |
| 2026-04-25 16:29 | 11.16013 | 125.02324 | 1203 ft | 145 kts | 9° |
| 2026-04-25 16:29 | 11.17023 | 125.02392 | 995 ft | 146 kts | 9° |
| 2026-04-25 16:29 | 11.18030 | 125.02460 | 810 ft | 145 kts | 7° |
| 2026-04-25 16:29 | 11.19049 | 125.02530 | 614 ft | 149 kts | 8° |
| 2026-04-25 16:30 | 11.20086 | 125.02600 | 414 ft | 151 kts | 5° |
| 2026-04-25 16:30 | 11.21236 | 125.02673 | 151 ft | 176 kts | 7° |
| 2026-04-25 16:30 | 11.22360 | 125.02748 | 17 ft | 147 kts | 7° |
| 2026-04-25 16:30 | 11.23034 | 125.02794 | 10 ft | 25 kts | 1° |
| 2026-04-25 16:31 | 11.23055 | 125.02795 | 10 ft | 3 kts | 1° |
| 2026-04-25 16:31 | 11.23118 | 125.02798 | 11 ft | 15 kts | 2° |
| 2026-04-25 16:31 | 11.23145 | 125.02800 | 12 ft | 16 kts | 2° |
| 2026-04-25 16:32 | 11.23152 | 125.02800 | 11 ft | 0 kts | 2° |
| 2026-04-25 16:32 | 11.23191 | 125.02802 | 10 ft | 12 kts | 3° |
| 2026-04-25 16:32 | 11.23264 | 125.02791 | 9 ft | 8 kts | 349° |
| 2026-04-25 16:33 | 11.23265 | 125.02805 | 9 ft | 2 kts | 152° |
| 2026-04-25 16:33 | 11.23185 | 125.02800 | 10 ft | 37 kts | 183° |
| 2026-04-25 16:33 | 11.22645 | 125.02767 | 14 ft | 114 kts | 184° |
| 2026-04-25 16:33 | 11.21665 | 125.02773 | 148 ft | 158 kts | 174° |
| 2026-04-25 16:34 | 11.20495 | 125.02784 | 646 ft | 177 kts | 176° |
| 2026-04-25 16:34 | 11.19234 | 125.02808 | 1297 ft | 186 kts | 174° |
| 2026-04-25 16:34 | 11.17850 | 125.02625 | 1639 ft | 213 kts | 197° |
| 2026-04-25 16:34 | 11.16413 | 125.02092 | 2115 ft | 230 kts | 196° |
| 2026-04-25 16:35 | 11.14888 | 125.01559 | 2807 ft | 220 kts | 194° |
| 2026-04-25 16:35 | 11.13488 | 125.01098 | 3334 ft | 210 kts | 195° |
| 2026-04-25 16:35 | 11.12107 | 125.00635 | 3769 ft | 208 kts | 195° |
| 2026-04-25 16:35 | 11.10722 | 125.00163 | 4199 ft | 213 kts | 194° |
| 2026-04-25 16:36 | 11.09299 | 124.99790 | 4478 ft | 213 kts | 189° |
| 2026-04-25 16:36 | 11.08821 | 124.99677 | 4569 ft | 212 kts | 189° |
| 2026-04-25 16:36 | 11.06460 | 124.99074 | 5151 ft | 214 kts | 192° |
| 2026-04-25 16:36 | 11.05057 | 124.98685 | 5336 ft | 207 kts | 195° |
| 2026-04-25 16:37 | 11.03665 | 124.98319 | 5440 ft | 209 kts | 189° |
| 2026-04-25 16:37 | 11.02228 | 124.97994 | 5846 ft | 212 kts | 186° |
| 2026-04-25 16:37 | 11.00751 | 124.97809 | 6161 ft | 213 kts | 172° |
| 2026-04-25 16:37 | 10.99436 | 124.98149 | 6587 ft | 206 kts | 150° |
| 2026-04-25 16:38 | 10.98364 | 124.99082 | 6606 ft | 204 kts | 121° |
| 2026-04-25 16:38 | 10.97845 | 125.00389 | 6840 ft | 198 kts | 95° |
| 2026-04-25 16:38 | 10.97999 | 125.01768 | 7075 ft | 199 kts | 68° |
| 2026-04-25 16:38 | 10.98740 | 125.02888 | 7573 ft | 211 kts | 41° |
| 2026-04-25 16:39 | 11.00020 | 125.03619 | 7714 ft | 212 kts | 17° |
| 2026-04-25 16:39 | 11.01471 | 125.03679 | 8445 ft | 215 kts | 0° |
| 2026-04-25 16:39 | 11.02985 | 125.03584 | 8765 ft | 216 kts | 355° |
| 2026-04-25 16:39 | 11.04476 | 125.03503 | 8735 ft | 211 kts | 348° |
| 2026-04-25 16:40 | 11.05896 | 125.03446 | 8766 ft | 203 kts | 348° |
| 2026-04-25 16:40 | 11.07299 | 125.03406 | 8800 ft | 201 kts | 348° |
| 2026-04-25 16:40 | 11.08707 | 125.03376 | 8832 ft | 202 kts | 349° |
| 2026-04-25 16:40 | 11.10113 | 125.03357 | 8888 ft | 203 kts | 349° |
| 2026-04-25 16:41 | 11.11539 | 125.03349 | 8665 ft | 213 kts | 351° |
| 2026-04-25 16:41 | 11.12052 | 125.03363 | 8515 ft | 219 kts | 352° |
| 2026-04-25 16:41 | 11.16084 | 125.03159 | 10340 ft | 252 kts | 348° |
| 2026-04-25 16:42 | 11.17790 | 125.03136 | 12025 ft | 217 kts | 353° |
| 2026-04-25 16:42 | 11.19367 | 125.03184 | 12963 ft | 239 kts | 348° |
| 2026-04-25 16:42 | 11.20995 | 125.03046 | 14157 ft | 230 kts | 348° |
| 2026-04-25 16:42 | 11.22465 | 125.02869 | 15081 ft | 230 kts | 343° |
| 2026-04-25 16:43 | 11.24034 | 125.02666 | 16127 ft | 218 kts | 351° |
| 2026-04-25 16:43 | 11.25489 | 125.02531 | 16867 ft | 220 kts | 356° |
| 2026-04-25 16:43 | 11.27199 | 125.02450 | 16549 ft | 271 kts | 359° |
| 2026-04-25 16:43 | 11.29254 | 125.02460 | 16370 ft | 316 kts | 1° |
| 2026-04-25 16:44 | 11.31586 | 125.02577 | 16268 ft | 355 kts | 4° |
| 2026-04-25 16:44 | 11.34168 | 125.02810 | 15484 ft | 389 kts | 7° |
| 2026-04-25 16:44 | 11.36954 | 125.03167 | 15354 ft | 419 kts | 9° |
| 2026-04-25 16:44 | 11.39921 | 125.03654 | 15206 ft | 444 kts | 11° |
| 2026-04-25 16:45 | 11.43013 | 125.04258 | 15298 ft | 455 kts | 12° |
| 2026-04-25 16:45 | 11.46052 | 125.04870 | 16172 ft | 447 kts | 12° |
| 2026-04-25 16:45 | 11.49076 | 125.05480 | 17049 ft | 439 kts | 12° |
| 2026-04-25 16:45 | 11.52057 | 125.06082 | 17909 ft | 432 kts | 12° |